sensor_id;sensor_type;location;lat;lon;timestamp;temperature;humidity
7002;DHT22;3541;53.230;10.518;2024-02-28T00:01:49;4.90;99.90
7002;DHT22;3541;53.230;10.518;2024-02-28T00:04:17;4.70;99.90
7002;DHT22;3541;53.230;10.518;2024-02-28T00:06:44;4.70;99.90
7002;DHT22;3541;53.230;10.518;2024-02-28T00:09:12;4.60;99.90
7002;DHT22;3541;53.230;10.518;2024-02-28T00:11:42;4.60;99.90
7002;DHT22;3541;53.230;10.518;2024-02-28T00:14:09;4.70;99.90
7002;DHT22;3541;53.230;10.518;2024-02-28T00:16:40;4.80;99.90
7002;DHT22;3541;53.230;10.518;2024-02-28T00:19:06;4.70;99.90
7002;DHT22;3541;53.230;10.518;2024-02-28T00:21:33;4.80;99.90
7002;DHT22;3541;53.230;10.518;2024-02-28T00:23:59;4.70;99.90
7002;DHT22;3541;53.230;10.518;2024-02-28T00:26:26;4.70;99.90
7002;DHT22;3541;53.230;10.518;2024-02-28T00:28:53;4.80;99.90
7002;DHT22;3541;53.230;10.518;2024-02-28T00:31:19;4.90;99.90
7002;DHT22;3541;53.230;10.518;2024-02-28T00:33:48;4.90;99.90
7002;DHT22;3541;53.230;10.518;2024-02-28T00:36:15;4.90;99.90
7002;DHT22;3541;53.230;10.518;2024-02-28T00:38:42;4.90;99.90
7002;DHT22;3541;53.230;10.518;2024-02-28T00:41:08;4.90;99.90
7002;DHT22;3541;53.230;10.518;2024-02-28T00:43:35;4.90;99.90
7002;DHT22;3541;53.230;10.518;2024-02-28T00:46:02;4.90;99.90
7002;DHT22;3541;53.230;10.518;2024-02-28T00:48:29;4.90;99.90
7002;DHT22;3541;53.230;10.518;2024-02-28T00:50:56;4.90;99.90
7002;DHT22;3541;53.230;10.518;2024-02-28T00:53:23;4.90;99.90
7002;DHT22;3541;53.230;10.518;2024-02-28T00:55:50;4.90;99.90
7002;DHT22;3541;53.230;10.518;2024-02-28T00:58:17;4.90;99.90
7002;DHT22;3541;53.230;10.518;2024-02-28T01:00:43;4.90;99.90
7002;DHT22;3541;53.230;10.518;2024-02-28T01:03:10;5.00;99.90
7002;DHT22;3541;53.230;10.518;2024-02-28T01:05:39;5.00;99.90
7002;DHT22;3541;53.230;10.518;2024-02-28T01:08:08;4.80;99.90
7002;DHT22;3541;53.230;10.518;2024-02-28T01:10:34;4.80;99.90
7002;DHT22;3541;53.230;10.518;2024-02-28T01:13:02;4.80;99.90
7002;DHT22;3541;53.230;10.518;2024-02-28T01:15:28;4.80;99.90
7002;DHT22;3541;53.230;10.518;2024-02-28T01:17:55;4.90;99.90
7002;DHT22;3541;53.230;10.518;2024-02-28T01:20:22;4.90;99.90
7002;DHT22;3541;53.230;10.518;2024-02-28T01:22:48;4.90;99.90
7002;DHT22;3541;53.230;10.518;2024-02-28T01:25:16;4.90;99.90
7002;DHT22;3541;53.230;10.518;2024-02-28T01:27:43;4.80;99.90
7002;DHT22;3541;53.230;10.518;2024-02-28T01:30:11;4.90;99.90
7002;DHT22;3541;53.230;10.518;2024-02-28T01:32:37;4.90;99.90
7002;DHT22;3541;53.230;10.518;2024-02-28T01:35:05;4.90;99.90
7002;DHT22;3541;53.230;10.518;2024-02-28T01:37:31;4.80;99.90
7002;DHT22;3541;53.230;10.518;2024-02-28T01:39:58;4.80;99.90
7002;DHT22;3541;53.230;10.518;2024-02-28T01:42:26;4.90;99.90
7002;DHT22;3541;53.230;10.518;2024-02-28T01:44:53;4.90;99.90
7002;DHT22;3541;53.230;10.518;2024-02-28T01:47:20;5.00;99.90
7002;DHT22;3541;53.230;10.518;2024-02-28T01:49:47;5.00;99.90
7002;DHT22;3541;53.230;10.518;2024-02-28T01:52:14;4.90;99.90
7002;DHT22;3541;53.230;10.518;2024-02-28T01:54:41;4.80;99.90
7002;DHT22;3541;53.230;10.518;2024-02-28T01:57:08;4.80;99.90
7002;DHT22;3541;53.230;10.518;2024-02-28T01:59:36;4.80;99.90
7002;DHT22;3541;53.230;10.518;2024-02-28T02:02:03;4.70;99.90
7002;DHT22;3541;53.230;10.518;2024-02-28T02:04:30;4.70;99.90
7002;DHT22;3541;53.230;10.518;2024-02-28T02:06:57;4.70;99.90
7002;DHT22;3541;53.230;10.518;2024-02-28T02:09:25;4.70;99.90
7002;DHT22;3541;53.230;10.518;2024-02-28T02:11:52;4.70;99.90
7002;DHT22;3541;53.230;10.518;2024-02-28T02:14:19;4.60;99.90
7002;DHT22;3541;53.230;10.518;2024-02-28T02:16:46;4.60;99.90
7002;DHT22;3541;53.230;10.518;2024-02-28T02:19:13;4.60;99.90
7002;DHT22;3541;53.230;10.518;2024-02-28T02:21:43;4.60;99.90
7002;DHT22;3541;53.230;10.518;2024-02-28T02:24:13;4.60;99.90
7002;DHT22;3541;53.230;10.518;2024-02-28T02:26:39;4.60;99.90
7002;DHT22;3541;53.230;10.518;2024-02-28T02:29:09;4.70;99.90
7002;DHT22;3541;53.230;10.518;2024-02-28T02:31:36;4.60;99.90
7002;DHT22;3541;53.230;10.518;2024-02-28T02:34:02;4.60;99.90
7002;DHT22;3541;53.230;10.518;2024-02-28T02:36:29;4.60;99.90
7002;DHT22;3541;53.230;10.518;2024-02-28T02:38:55;4.60;99.90
7002;DHT22;3541;53.230;10.518;2024-02-28T02:41:24;4.60;99.90
7002;DHT22;3541;53.230;10.518;2024-02-28T02:43:51;4.60;99.90
7002;DHT22;3541;53.230;10.518;2024-02-28T02:46:18;4.40;99.90
7002;DHT22;3541;53.230;10.518;2024-02-28T02:48:44;4.50;99.90
7002;DHT22;3541;53.230;10.518;2024-02-28T02:51:11;4.50;99.90
7002;DHT22;3541;53.230;10.518;2024-02-28T02:53:37;4.50;99.90
7002;DHT22;3541;53.230;10.518;2024-02-28T02:56:04;4.50;99.90
7002;DHT22;3541;53.230;10.518;2024-02-28T02:58:32;4.40;99.90
7002;DHT22;3541;53.230;10.518;2024-02-28T03:00:59;4.40;99.90
7002;DHT22;3541;53.230;10.518;2024-02-28T03:03:25;4.50;99.90
7002;DHT22;3541;53.230;10.518;2024-02-28T03:05:52;4.40;99.90
7002;DHT22;3541;53.230;10.518;2024-02-28T03:08:18;4.50;99.90
7002;DHT22;3541;53.230;10.518;2024-02-28T03:10:45;4.40;99.90
7002;DHT22;3541;53.230;10.518;2024-02-28T03:13:11;4.30;99.90
7002;DHT22;3541;53.230;10.518;2024-02-28T03:15:39;4.40;99.90
7002;DHT22;3541;53.230;10.518;2024-02-28T03:18:06;4.40;99.90
7002;DHT22;3541;53.230;10.518;2024-02-28T03:20:33;4.10;99.90
7002;DHT22;3541;53.230;10.518;2024-02-28T03:23:02;4.10;99.90
7002;DHT22;3541;53.230;10.518;2024-02-28T03:25:28;4.20;99.90
7002;DHT22;3541;53.230;10.518;2024-02-28T03:27:56;4.20;99.90
7002;DHT22;3541;53.230;10.518;2024-02-28T03:30:22;4.30;99.90
7002;DHT22;3541;53.230;10.518;2024-02-28T03:32:50;4.20;99.90
7002;DHT22;3541;53.230;10.518;2024-02-28T03:35:17;4.20;99.90
7002;DHT22;3541;53.230;10.518;2024-02-28T03:37:44;4.20;99.90
7002;DHT22;3541;53.230;10.518;2024-02-28T03:40:11;4.20;99.90
7002;DHT22;3541;53.230;10.518;2024-02-28T03:42:37;4.20;99.90
7002;DHT22;3541;53.230;10.518;2024-02-28T03:45:05;4.00;99.90
7002;DHT22;3541;53.230;10.518;2024-02-28T03:47:31;3.90;99.90
7002;DHT22;3541;53.230;10.518;2024-02-28T03:49:59;3.70;99.90
7002;DHT22;3541;53.230;10.518;2024-02-28T03:52:29;3.90;99.90
7002;DHT22;3541;53.230;10.518;2024-02-28T03:54:56;4.00;99.90
7002;DHT22;3541;53.230;10.518;2024-02-28T03:57:23;3.90;99.90
7002;DHT22;3541;53.230;10.518;2024-02-28T03:59:49;3.90;99.90
7002;DHT22;3541;53.230;10.518;2024-02-28T04:02:16;3.90;99.90
7002;DHT22;3541;53.230;10.518;2024-02-28T04:04:43;4.00;99.90
7002;DHT22;3541;53.230;10.518;2024-02-28T04:07:10;4.00;99.90
7002;DHT22;3541;53.230;10.518;2024-02-28T04:09:37;4.00;99.90
7002;DHT22;3541;53.230;10.518;2024-02-28T04:12:04;4.00;99.90
7002;DHT22;3541;53.230;10.518;2024-02-28T04:14:30;3.90;99.90
7002;DHT22;3541;53.230;10.518;2024-02-28T04:16:57;3.90;99.90
7002;DHT22;3541;53.230;10.518;2024-02-28T04:19:24;3.90;99.90
7002;DHT22;3541;53.230;10.518;2024-02-28T04:21:50;4.00;99.90
7002;DHT22;3541;53.230;10.518;2024-02-28T04:24:18;4.00;99.90
7002;DHT22;3541;53.230;10.518;2024-02-28T04:26:45;4.10;99.90
7002;DHT22;3541;53.230;10.518;2024-02-28T04:29:11;4.10;99.90
7002;DHT22;3541;53.230;10.518;2024-02-28T04:31:39;4.10;99.90
7002;DHT22;3541;53.230;10.518;2024-02-28T04:34:05;4.10;99.90
7002;DHT22;3541;53.230;10.518;2024-02-28T04:36:32;4.10;99.90
7002;DHT22;3541;53.230;10.518;2024-02-28T04:38:59;4.10;99.90
7002;DHT22;3541;53.230;10.518;2024-02-28T04:41:27;4.10;99.90
7002;DHT22;3541;53.230;10.518;2024-02-28T04:43:54;4.00;99.90
7002;DHT22;3541;53.230;10.518;2024-02-28T04:46:20;4.00;99.90
7002;DHT22;3541;53.230;10.518;2024-02-28T04:48:47;4.10;99.90
7002;DHT22;3541;53.230;10.518;2024-02-28T04:51:15;4.10;99.90
7002;DHT22;3541;53.230;10.518;2024-02-28T04:53:42;4.20;99.90
7002;DHT22;3541;53.230;10.518;2024-02-28T04:56:09;4.10;99.90
7002;DHT22;3541;53.230;10.518;2024-02-28T04:58:37;4.10;99.90
7002;DHT22;3541;53.230;10.518;2024-02-28T05:01:04;4.10;99.90
7002;DHT22;3541;53.230;10.518;2024-02-28T05:03:30;4.10;99.90
7002;DHT22;3541;53.230;10.518;2024-02-28T05:05:57;4.20;99.90
7002;DHT22;3541;53.230;10.518;2024-02-28T05:08:24;4.10;99.90
7002;DHT22;3541;53.230;10.518;2024-02-28T05:10:52;4.10;99.90
7002;DHT22;3541;53.230;10.518;2024-02-28T05:13:19;4.10;99.90
7002;DHT22;3541;53.230;10.518;2024-02-28T05:15:48;4.20;99.90
7002;DHT22;3541;53.230;10.518;2024-02-28T05:18:16;4.10;99.90
7002;DHT22;3541;53.230;10.518;2024-02-28T05:20:42;4.10;99.90
7002;DHT22;3541;53.230;10.518;2024-02-28T05:23:09;4.10;99.90
7002;DHT22;3541;53.230;10.518;2024-02-28T05:25:36;4.10;99.90
7002;DHT22;3541;53.230;10.518;2024-02-28T05:28:02;4.00;99.90
7002;DHT22;3541;53.230;10.518;2024-02-28T05:30:29;4.00;99.90
7002;DHT22;3541;53.230;10.518;2024-02-28T05:32:57;3.90;99.90
7002;DHT22;3541;53.230;10.518;2024-02-28T05:35:24;4.00;99.90
7002;DHT22;3541;53.230;10.518;2024-02-28T05:37:53;4.00;99.90
7002;DHT22;3541;53.230;10.518;2024-02-28T05:40:20;4.00;99.90
7002;DHT22;3541;53.230;10.518;2024-02-28T05:42:46;4.00;99.90
7002;DHT22;3541;53.230;10.518;2024-02-28T05:45:13;4.10;99.90
7002;DHT22;3541;53.230;10.518;2024-02-28T05:47:39;4.00;99.90
7002;DHT22;3541;53.230;10.518;2024-02-28T05:50:08;4.00;99.90
7002;DHT22;3541;53.230;10.518;2024-02-28T05:52:35;4.00;99.90
7002;DHT22;3541;53.230;10.518;2024-02-28T05:55:02;4.10;99.90
7002;DHT22;3541;53.230;10.518;2024-02-28T05:57:29;4.10;99.90
7002;DHT22;3541;53.230;10.518;2024-02-28T05:59:55;4.10;99.90
7002;DHT22;3541;53.230;10.518;2024-02-28T06:02:22;4.10;99.90
7002;DHT22;3541;53.230;10.518;2024-02-28T06:04:48;4.10;99.90
7002;DHT22;3541;53.230;10.518;2024-02-28T06:07:16;4.10;99.90
7002;DHT22;3541;53.230;10.518;2024-02-28T06:09:43;4.10;99.90
7002;DHT22;3541;53.230;10.518;2024-02-28T06:12:09;4.10;99.90
7002;DHT22;3541;53.230;10.518;2024-02-28T06:14:36;4.10;99.90
7002;DHT22;3541;53.230;10.518;2024-02-28T06:17:03;4.10;99.90
7002;DHT22;3541;53.230;10.518;2024-02-28T06:19:29;4.10;99.90
7002;DHT22;3541;53.230;10.518;2024-02-28T06:21:56;4.10;99.90
7002;DHT22;3541;53.230;10.518;2024-02-28T06:24:23;4.10;99.90
7002;DHT22;3541;53.230;10.518;2024-02-28T06:26:50;4.10;99.90
7002;DHT22;3541;53.230;10.518;2024-02-28T06:29:17;4.10;99.90
7002;DHT22;3541;53.230;10.518;2024-02-28T06:31:43;4.00;99.90
7002;DHT22;3541;53.230;10.518;2024-02-28T06:34:10;4.00;99.90
7002;DHT22;3541;53.230;10.518;2024-02-28T06:36:36;4.00;99.90
7002;DHT22;3541;53.230;10.518;2024-02-28T06:39:03;3.90;99.90
7002;DHT22;3541;53.230;10.518;2024-02-28T06:41:31;3.90;99.90
7002;DHT22;3541;53.230;10.518;2024-02-28T06:43:57;3.90;99.90
7002;DHT22;3541;53.230;10.518;2024-02-28T06:46:24;4.00;99.90
7002;DHT22;3541;53.230;10.518;2024-02-28T06:48:50;4.10;99.90
7002;DHT22;3541;53.230;10.518;2024-02-28T06:51:17;4.00;99.90
7002;DHT22;3541;53.230;10.518;2024-02-28T06:53:44;4.10;99.90
7002;DHT22;3541;53.230;10.518;2024-02-28T06:56:10;4.00;99.90
7002;DHT22;3541;53.230;10.518;2024-02-28T06:58:38;4.10;99.90
7002;DHT22;3541;53.230;10.518;2024-02-28T07:01:05;4.10;99.90
7002;DHT22;3541;53.230;10.518;2024-02-28T07:03:31;4.10;99.90
7002;DHT22;3541;53.230;10.518;2024-02-28T07:05:58;4.10;99.90
7002;DHT22;3541;53.230;10.518;2024-02-28T07:08:24;4.10;99.90
7002;DHT22;3541;53.230;10.518;2024-02-28T07:10:50;4.20;99.90
7002;DHT22;3541;53.230;10.518;2024-02-28T07:13:19;4.10;99.90
7002;DHT22;3541;53.230;10.518;2024-02-28T07:15:47;4.20;99.90
7002;DHT22;3541;53.230;10.518;2024-02-28T07:18:14;4.30;99.90
7002;DHT22;3541;53.230;10.518;2024-02-28T07:20:41;4.30;99.90
7002;DHT22;3541;53.230;10.518;2024-02-28T07:23:07;4.30;99.90
7002;DHT22;3541;53.230;10.518;2024-02-28T07:25:34;4.30;99.90
7002;DHT22;3541;53.230;10.518;2024-02-28T07:28:01;4.20;99.90
7002;DHT22;3541;53.230;10.518;2024-02-28T07:30:27;4.30;99.90
7002;DHT22;3541;53.230;10.518;2024-02-28T07:32:55;4.20;99.90
7002;DHT22;3541;53.230;10.518;2024-02-28T07:35:22;4.20;99.90
7002;DHT22;3541;53.230;10.518;2024-02-28T07:37:49;4.20;99.90
7002;DHT22;3541;53.230;10.518;2024-02-28T07:40:16;4.20;99.90
7002;DHT22;3541;53.230;10.518;2024-02-28T07:42:43;4.20;99.90
7002;DHT22;3541;53.230;10.518;2024-02-28T07:45:10;4.20;99.90
7002;DHT22;3541;53.230;10.518;2024-02-28T07:47:37;4.20;99.90
7002;DHT22;3541;53.230;10.518;2024-02-28T07:50:06;4.30;99.90
7002;DHT22;3541;53.230;10.518;2024-02-28T07:52:33;4.30;99.90
7002;DHT22;3541;53.230;10.518;2024-02-28T07:55:00;4.40;99.90
7002;DHT22;3541;53.230;10.518;2024-02-28T07:57:27;4.50;99.90
7002;DHT22;3541;53.230;10.518;2024-02-28T07:59:54;4.40;99.90
7002;DHT22;3541;53.230;10.518;2024-02-28T08:02:21;4.50;99.90
7002;DHT22;3541;53.230;10.518;2024-02-28T08:04:47;4.50;99.90
7002;DHT22;3541;53.230;10.518;2024-02-28T08:07:17;4.50;99.90
7002;DHT22;3541;53.230;10.518;2024-02-28T08:09:44;4.50;99.90
7002;DHT22;3541;53.230;10.518;2024-02-28T08:12:10;4.40;99.90
7002;DHT22;3541;53.230;10.518;2024-02-28T08:14:37;4.50;99.90
7002;DHT22;3541;53.230;10.518;2024-02-28T08:17:03;4.60;99.90
7002;DHT22;3541;53.230;10.518;2024-02-28T08:19:30;4.60;99.90
7002;DHT22;3541;53.230;10.518;2024-02-28T08:21:57;4.60;99.90
7002;DHT22;3541;53.230;10.518;2024-02-28T08:24:25;4.70;99.90
7002;DHT22;3541;53.230;10.518;2024-02-28T08:26:51;4.70;99.90
7002;DHT22;3541;53.230;10.518;2024-02-28T08:29:18;4.80;99.90
7002;DHT22;3541;53.230;10.518;2024-02-28T08:31:45;4.80;99.90
7002;DHT22;3541;53.230;10.518;2024-02-28T08:34:11;4.80;99.90
7002;DHT22;3541;53.230;10.518;2024-02-28T08:36:38;4.80;99.90
7002;DHT22;3541;53.230;10.518;2024-02-28T08:39:05;4.80;99.90
7002;DHT22;3541;53.230;10.518;2024-02-28T08:41:36;4.90;99.90
7002;DHT22;3541;53.230;10.518;2024-02-28T08:44:02;4.90;99.90
7002;DHT22;3541;53.230;10.518;2024-02-28T08:46:29;4.90;99.90
7002;DHT22;3541;53.230;10.518;2024-02-28T08:48:56;5.00;99.90
7002;DHT22;3541;53.230;10.518;2024-02-28T08:51:22;4.90;99.90
7002;DHT22;3541;53.230;10.518;2024-02-28T08:53:49;4.90;99.90
7002;DHT22;3541;53.230;10.518;2024-02-28T08:56:17;4.90;99.90
7002;DHT22;3541;53.230;10.518;2024-02-28T08:58:45;5.00;99.90
7002;DHT22;3541;53.230;10.518;2024-02-28T09:01:13;4.90;99.90
7002;DHT22;3541;53.230;10.518;2024-02-28T09:03:41;5.00;99.90
7002;DHT22;3541;53.230;10.518;2024-02-28T09:06:07;5.00;99.90
7002;DHT22;3541;53.230;10.518;2024-02-28T09:08:34;5.00;99.90
7002;DHT22;3541;53.230;10.518;2024-02-28T09:11:01;5.10;99.90
7002;DHT22;3541;53.230;10.518;2024-02-28T09:13:27;5.10;99.90
7002;DHT22;3541;53.230;10.518;2024-02-28T09:15:56;5.10;99.90
7002;DHT22;3541;53.230;10.518;2024-02-28T09:18:23;5.10;99.90
7002;DHT22;3541;53.230;10.518;2024-02-28T09:20:50;5.10;99.90
7002;DHT22;3541;53.230;10.518;2024-02-28T09:23:16;5.20;99.90
7002;DHT22;3541;53.230;10.518;2024-02-28T09:25:43;5.40;99.90
7002;DHT22;3541;53.230;10.518;2024-02-28T09:28:10;5.40;99.90
7002;DHT22;3541;53.230;10.518;2024-02-28T09:30:38;5.60;99.90
7002;DHT22;3541;53.230;10.518;2024-02-28T09:33:06;5.60;99.90
7002;DHT22;3541;53.230;10.518;2024-02-28T09:35:34;5.70;99.90
7002;DHT22;3541;53.230;10.518;2024-02-28T09:38:01;5.70;99.90
7002;DHT22;3541;53.230;10.518;2024-02-28T09:40:28;5.80;99.90
7002;DHT22;3541;53.230;10.518;2024-02-28T09:43:02;5.90;99.90
7002;DHT22;3541;53.230;10.518;2024-02-28T09:45:29;5.80;99.90
7002;DHT22;3541;53.230;10.518;2024-02-28T09:47:58;5.70;99.90
7002;DHT22;3541;53.230;10.518;2024-02-28T09:50:26;5.70;99.90
7002;DHT22;3541;53.230;10.518;2024-02-28T09:52:53;5.90;99.90
7002;DHT22;3541;53.230;10.518;2024-02-28T09:55:20;5.90;99.90
7002;DHT22;3541;53.230;10.518;2024-02-28T09:57:48;5.90;99.90
7002;DHT22;3541;53.230;10.518;2024-02-28T10:00:16;6.00;99.90
7002;DHT22;3541;53.230;10.518;2024-02-28T10:02:47;6.10;99.90
7002;DHT22;3541;53.230;10.518;2024-02-28T10:05:14;6.20;99.90
7002;DHT22;3541;53.230;10.518;2024-02-28T10:07:43;6.30;99.90
7002;DHT22;3541;53.230;10.518;2024-02-28T10:10:09;6.40;99.90
7002;DHT22;3541;53.230;10.518;2024-02-28T10:12:40;6.40;99.90
7002;DHT22;3541;53.230;10.518;2024-02-28T10:15:07;6.50;99.90
7002;DHT22;3541;53.230;10.518;2024-02-28T10:17:34;6.70;99.90
7002;DHT22;3541;53.230;10.518;2024-02-28T10:20:01;6.80;99.90
7002;DHT22;3541;53.230;10.518;2024-02-28T10:22:34;6.80;99.90
7002;DHT22;3541;53.230;10.518;2024-02-28T10:25:02;6.70;99.90
7002;DHT22;3541;53.230;10.518;2024-02-28T10:27:32;6.70;99.90
7002;DHT22;3541;53.230;10.518;2024-02-28T10:29:58;6.70;99.90
7002;DHT22;3541;53.230;10.518;2024-02-28T10:32:25;6.80;99.90
7002;DHT22;3541;53.230;10.518;2024-02-28T10:34:51;6.70;99.90
7002;DHT22;3541;53.230;10.518;2024-02-28T10:37:20;6.90;99.90
7002;DHT22;3541;53.230;10.518;2024-02-28T10:39:47;6.90;99.90
7002;DHT22;3541;53.230;10.518;2024-02-28T10:42:16;7.00;99.90
7002;DHT22;3541;53.230;10.518;2024-02-28T10:44:43;7.00;99.90
7002;DHT22;3541;53.230;10.518;2024-02-28T10:47:10;7.10;99.90
7002;DHT22;3541;53.230;10.518;2024-02-28T10:49:37;7.00;99.90
7002;DHT22;3541;53.230;10.518;2024-02-28T10:52:06;7.10;99.90
7002;DHT22;3541;53.230;10.518;2024-02-28T10:54:38;7.20;99.90
7002;DHT22;3541;53.230;10.518;2024-02-28T10:57:06;7.10;99.90
7002;DHT22;3541;53.230;10.518;2024-02-28T10:59:37;7.20;99.90
7002;DHT22;3541;53.230;10.518;2024-02-28T11:02:05;7.20;99.90
7002;DHT22;3541;53.230;10.518;2024-02-28T11:04:32;7.20;99.90
7002;DHT22;3541;53.230;10.518;2024-02-28T11:07:00;7.30;99.90
7002;DHT22;3541;53.230;10.518;2024-02-28T11:09:28;7.10;99.90
7002;DHT22;3541;53.230;10.518;2024-02-28T11:11:56;7.10;99.90
7002;DHT22;3541;53.230;10.518;2024-02-28T11:14:23;7.20;99.90
7002;DHT22;3541;53.230;10.518;2024-02-28T11:17:01;7.20;99.90
7002;DHT22;3541;53.230;10.518;2024-02-28T11:19:28;7.30;99.90
7002;DHT22;3541;53.230;10.518;2024-02-28T11:21:56;7.20;99.90
7002;DHT22;3541;53.230;10.518;2024-02-28T11:24:23;7.20;99.90
7002;DHT22;3541;53.230;10.518;2024-02-28T11:26:50;7.30;99.90
7002;DHT22;3541;53.230;10.518;2024-02-28T11:29:22;7.30;99.90
7002;DHT22;3541;53.230;10.518;2024-02-28T11:31:49;7.30;99.90
7002;DHT22;3541;53.230;10.518;2024-02-28T11:34:17;7.50;99.90
7002;DHT22;3541;53.230;10.518;2024-02-28T11:36:47;7.70;99.90
7002;DHT22;3541;53.230;10.518;2024-02-28T11:39:13;7.80;99.90
7002;DHT22;3541;53.230;10.518;2024-02-28T11:41:40;7.80;99.90
7002;DHT22;3541;53.230;10.518;2024-02-28T11:44:06;7.90;99.90
7002;DHT22;3541;53.230;10.518;2024-02-28T11:46:33;8.00;99.90
7002;DHT22;3541;53.230;10.518;2024-02-28T11:49:01;8.00;99.90
7002;DHT22;3541;53.230;10.518;2024-02-28T11:51:29;8.10;99.90
7002;DHT22;3541;53.230;10.518;2024-02-28T11:53:55;8.10;99.90
7002;DHT22;3541;53.230;10.518;2024-02-28T11:56:22;8.20;99.90
7002;DHT22;3541;53.230;10.518;2024-02-28T11:58:51;8.20;99.90
7002;DHT22;3541;53.230;10.518;2024-02-28T12:01:18;8.10;99.90
7002;DHT22;3541;53.230;10.518;2024-02-28T12:03:45;8.20;99.90
7002;DHT22;3541;53.230;10.518;2024-02-28T12:06:12;8.30;99.90
7002;DHT22;3541;53.230;10.518;2024-02-28T12:08:40;8.30;99.90
7002;DHT22;3541;53.230;10.518;2024-02-28T12:11:07;8.30;99.90
7002;DHT22;3541;53.230;10.518;2024-02-28T12:13:36;8.30;99.90
7002;DHT22;3541;53.230;10.518;2024-02-28T12:16:03;8.40;99.90
7002;DHT22;3541;53.230;10.518;2024-02-28T12:18:30;8.50;99.90
7002;DHT22;3541;53.230;10.518;2024-02-28T12:21:00;8.40;99.90
7002;DHT22;3541;53.230;10.518;2024-02-28T12:23:26;8.40;99.90
7002;DHT22;3541;53.230;10.518;2024-02-28T12:25:54;8.40;99.90
7002;DHT22;3541;53.230;10.518;2024-02-28T12:28:21;8.40;99.90
7002;DHT22;3541;53.230;10.518;2024-02-28T12:30:48;8.40;99.90
7002;DHT22;3541;53.230;10.518;2024-02-28T12:33:14;8.50;99.90
7002;DHT22;3541;53.230;10.518;2024-02-28T12:35:41;8.70;99.90
7002;DHT22;3541;53.230;10.518;2024-02-28T12:38:08;8.80;99.90
7002;DHT22;3541;53.230;10.518;2024-02-28T12:40:35;8.80;99.90
7002;DHT22;3541;53.230;10.518;2024-02-28T12:43:03;8.80;99.90
7002;DHT22;3541;53.230;10.518;2024-02-28T12:45:30;8.70;99.90
7002;DHT22;3541;53.230;10.518;2024-02-28T12:47:56;8.70;99.90
7002;DHT22;3541;53.230;10.518;2024-02-28T12:50:23;8.70;99.90
7002;DHT22;3541;53.230;10.518;2024-02-28T12:52:50;8.70;99.90
7002;DHT22;3541;53.230;10.518;2024-02-28T12:55:19;8.70;99.90
7002;DHT22;3541;53.230;10.518;2024-02-28T12:57:45;8.70;99.90
7002;DHT22;3541;53.230;10.518;2024-02-28T13:00:14;8.80;99.90
7002;DHT22;3541;53.230;10.518;2024-02-28T13:02:40;8.80;99.90
7002;DHT22;3541;53.230;10.518;2024-02-28T13:05:07;9.00;99.90
7002;DHT22;3541;53.230;10.518;2024-02-28T13:07:34;9.20;99.90
7002;DHT22;3541;53.230;10.518;2024-02-28T13:10:01;9.30;99.90
7002;DHT22;3541;53.230;10.518;2024-02-28T13:12:30;9.40;99.90
7002;DHT22;3541;53.230;10.518;2024-02-28T13:14:57;9.30;99.90
7002;DHT22;3541;53.230;10.518;2024-02-28T13:17:25;9.60;99.90
7002;DHT22;3541;53.230;10.518;2024-02-28T13:19:52;9.70;99.90
7002;DHT22;3541;53.230;10.518;2024-02-28T13:22:18;9.90;99.90
7002;DHT22;3541;53.230;10.518;2024-02-28T13:24:45;9.90;99.90
7002;DHT22;3541;53.230;10.518;2024-02-28T13:27:11;10.00;99.90
7002;DHT22;3541;53.230;10.518;2024-02-28T13:29:38;10.00;99.90
7002;DHT22;3541;53.230;10.518;2024-02-28T13:32:05;10.10;99.90
7002;DHT22;3541;53.230;10.518;2024-02-28T13:34:33;10.10;99.90
7002;DHT22;3541;53.230;10.518;2024-02-28T13:36:59;10.10;99.90
7002;DHT22;3541;53.230;10.518;2024-02-28T13:39:26;10.20;99.90
7002;DHT22;3541;53.230;10.518;2024-02-28T13:41:52;10.30;99.90
7002;DHT22;3541;53.230;10.518;2024-02-28T13:44:19;10.10;99.90
7002;DHT22;3541;53.230;10.518;2024-02-28T13:46:46;10.10;99.90
7002;DHT22;3541;53.230;10.518;2024-02-28T13:49:13;10.30;99.90
7002;DHT22;3541;53.230;10.518;2024-02-28T13:51:41;10.30;99.90
7002;DHT22;3541;53.230;10.518;2024-02-28T13:54:08;10.40;99.90
7002;DHT22;3541;53.230;10.518;2024-02-28T13:56:35;10.40;99.90
7002;DHT22;3541;53.230;10.518;2024-02-28T13:59:01;10.40;99.90
7002;DHT22;3541;53.230;10.518;2024-02-28T14:01:28;10.30;99.90
7002;DHT22;3541;53.230;10.518;2024-02-28T14:03:54;10.10;99.90
7002;DHT22;3541;53.230;10.518;2024-02-28T14:06:21;10.00;99.90
7002;DHT22;3541;53.230;10.518;2024-02-28T14:08:49;9.80;99.90
7002;DHT22;3541;53.230;10.518;2024-02-28T14:11:17;9.70;99.90
7002;DHT22;3541;53.230;10.518;2024-02-28T14:13:44;9.60;99.90
7002;DHT22;3541;53.230;10.518;2024-02-28T14:16:10;9.50;99.90
7002;DHT22;3541;53.230;10.518;2024-02-28T14:18:37;9.50;99.90
7002;DHT22;3541;53.230;10.518;2024-02-28T14:21:04;9.40;99.90
7002;DHT22;3541;53.230;10.518;2024-02-28T14:23:30;9.30;99.90
7002;DHT22;3541;53.230;10.518;2024-02-28T14:25:58;9.30;99.90
7002;DHT22;3541;53.230;10.518;2024-02-28T14:28:25;9.20;99.90
7002;DHT22;3541;53.230;10.518;2024-02-28T14:30:51;9.20;99.90
7002;DHT22;3541;53.230;10.518;2024-02-28T14:33:18;9.20;99.90
7002;DHT22;3541;53.230;10.518;2024-02-28T14:35:44;9.20;99.90
7002;DHT22;3541;53.230;10.518;2024-02-28T14:38:11;9.20;99.90
7002;DHT22;3541;53.230;10.518;2024-02-28T14:40:38;9.30;99.90
7002;DHT22;3541;53.230;10.518;2024-02-28T14:43:07;9.50;99.90
7002;DHT22;3541;53.230;10.518;2024-02-28T14:45:33;9.70;99.90
7002;DHT22;3541;53.230;10.518;2024-02-28T14:48:00;9.80;99.90
7002;DHT22;3541;53.230;10.518;2024-02-28T14:50:27;9.90;99.90
7002;DHT22;3541;53.230;10.518;2024-02-28T14:52:53;9.80;99.90
7002;DHT22;3541;53.230;10.518;2024-02-28T14:55:20;9.80;99.90
7002;DHT22;3541;53.230;10.518;2024-02-28T14:57:46;9.80;99.90
7002;DHT22;3541;53.230;10.518;2024-02-28T15:00:15;9.80;99.90
7002;DHT22;3541;53.230;10.518;2024-02-28T15:02:42;9.70;99.90
7002;DHT22;3541;53.230;10.518;2024-02-28T15:05:10;9.60;99.90
7002;DHT22;3541;53.230;10.518;2024-02-28T15:07:38;9.50;99.90
7002;DHT22;3541;53.230;10.518;2024-02-28T15:10:06;9.30;99.90
7002;DHT22;3541;53.230;10.518;2024-02-28T15:12:33;9.20;99.90
7002;DHT22;3541;53.230;10.518;2024-02-28T15:15:00;9.20;99.90
7002;DHT22;3541;53.230;10.518;2024-02-28T15:17:28;9.30;99.90
7002;DHT22;3541;53.230;10.518;2024-02-28T15:19:55;9.30;99.90
7002;DHT22;3541;53.230;10.518;2024-02-28T15:22:22;9.20;99.90
7002;DHT22;3541;53.230;10.518;2024-02-28T15:24:48;9.20;99.90
7002;DHT22;3541;53.230;10.518;2024-02-28T15:27:15;9.20;99.90
7002;DHT22;3541;53.230;10.518;2024-02-28T15:29:41;9.00;99.90
7002;DHT22;3541;53.230;10.518;2024-02-28T15:32:08;9.10;99.90
7002;DHT22;3541;53.230;10.518;2024-02-28T15:34:37;9.10;99.90
7002;DHT22;3541;53.230;10.518;2024-02-28T15:37:04;9.00;99.90
7002;DHT22;3541;53.230;10.518;2024-02-28T15:39:30;8.90;99.90
7002;DHT22;3541;53.230;10.518;2024-02-28T15:41:57;8.90;99.90
7002;DHT22;3541;53.230;10.518;2024-02-28T15:44:25;9.00;99.90
7002;DHT22;3541;53.230;10.518;2024-02-28T15:46:52;8.90;99.90
7002;DHT22;3541;53.230;10.518;2024-02-28T15:49:19;8.90;99.90
7002;DHT22;3541;53.230;10.518;2024-02-28T15:51:48;8.80;99.90
7002;DHT22;3541;53.230;10.518;2024-02-28T15:54:14;8.80;99.90
7002;DHT22;3541;53.230;10.518;2024-02-28T15:56:41;8.80;99.90
7002;DHT22;3541;53.230;10.518;2024-02-28T15:59:09;8.80;99.90
7002;DHT22;3541;53.230;10.518;2024-02-28T16:01:37;8.80;99.90